ダブリン の空港の天気 - METARとTAF

ダブリン空港 ( EIDW / DUB ) - アイルランド ダブリン
飛行場実況気象(Metar)
観測時間07/29 03:30 GMT (07/29 02:30 UTC)
風向・風速西南西 6m/s
視程10km以上
天気現象
少しの雲 雲底高度 490m
気温11℃
湿度87%
気圧1006hPa
METAREIDW 290230Z 25012KT 220V280 9999 FEW016 11/09 Q1006 NOSIG
過去の天気等 Google飛行場航空写真 Wunderground天気予報

過去48時間のMETAR

飛行場予報(TAF)
発表時間: 7/29 00:00 GMT (7/28 23:00 UTC)
予報対象時間: 29日1時 GMT ~ 30日1時 GMT
風向・風速西 7m/s
視程10km以上
少しの雲 雲底高度 520m
全天の4割程度の雲 雲底高度 1220m
29日3時 GMT ~ 29日6時 GMT に 確率 30% で一時的に
風向・風速西 7m/s 瞬間風速 13m/s
29日6時 GMT ~ 29日14時 GMT に一時的に
風向・風速西 8m/s 瞬間風速 14m/s
29日14時 GMT ~ 29日16時 GMT に徐々に
風向・風速西北西 6m/s
29日18時 GMT ~ 29日20時 GMT に徐々に
風向・風速西北西 3m/s
TAF EIDW 282300Z 2900/2924 26013KT 9999 FEW017 SCT040
PROB30 TEMPO 2902/2905 26014G25KT
TEMPO 2905/2913 27016G27KT
BECMG 2913/2915 29011KT
BECMG 2917/2919 29006KT